sensor_id;sensor_type;location;lat;lon;timestamp;temperature;humidity
5617;DHT22;2830;50.656;7.568;2023-05-18T00:01:15;4.60;99.90
5617;DHT22;2830;50.656;7.568;2023-05-18T00:03:42;4.50;99.90
5617;DHT22;2830;50.656;7.568;2023-05-18T00:06:09;4.40;99.90
5617;DHT22;2830;50.656;7.568;2023-05-18T00:08:36;4.40;99.90
5617;DHT22;2830;50.656;7.568;2023-05-18T00:11:05;4.30;99.90
5617;DHT22;2830;50.656;7.568;2023-05-18T00:13:32;4.30;99.90
5617;DHT22;2830;50.656;7.568;2023-05-18T00:15:59;4.20;99.90
5617;DHT22;2830;50.656;7.568;2023-05-18T00:18:26;4.20;99.90
5617;DHT22;2830;50.656;7.568;2023-05-18T00:20:54;4.30;99.90
5617;DHT22;2830;50.656;7.568;2023-05-18T00:23:30;4.20;99.90
5617;DHT22;2830;50.656;7.568;2023-05-18T00:25:59;4.20;99.90
5617;DHT22;2830;50.656;7.568;2023-05-18T00:28:27;4.20;99.90
5617;DHT22;2830;50.656;7.568;2023-05-18T00:30:54;4.20;99.90
5617;DHT22;2830;50.656;7.568;2023-05-18T00:33:21;4.10;99.90
5617;DHT22;2830;50.656;7.568;2023-05-18T00:35:48;4.10;99.90
5617;DHT22;2830;50.656;7.568;2023-05-18T00:38:15;4.00;99.90
5617;DHT22;2830;50.656;7.568;2023-05-18T00:40:42;4.00;99.90
5617;DHT22;2830;50.656;7.568;2023-05-18T00:43:09;4.00;99.90
5617;DHT22;2830;50.656;7.568;2023-05-18T00:45:36;3.90;99.90
5617;DHT22;2830;50.656;7.568;2023-05-18T00:48:03;4.00;99.90
5617;DHT22;2830;50.656;7.568;2023-05-18T00:50:30;4.00;99.90
5617;DHT22;2830;50.656;7.568;2023-05-18T00:52:57;4.10;99.90
5617;DHT22;2830;50.656;7.568;2023-05-18T00:55:24;4.00;99.90
5617;DHT22;2830;50.656;7.568;2023-05-18T00:57:54;3.90;99.90
5617;DHT22;2830;50.656;7.568;2023-05-18T01:00:22;3.90;99.90
5617;DHT22;2830;50.656;7.568;2023-05-18T01:02:49;3.90;99.90
5617;DHT22;2830;50.656;7.568;2023-05-18T01:05:16;3.80;99.90
5617;DHT22;2830;50.656;7.568;2023-05-18T01:07:43;3.80;99.90
5617;DHT22;2830;50.656;7.568;2023-05-18T01:10:11;3.70;99.90
5617;DHT22;2830;50.656;7.568;2023-05-18T01:15:37;3.70;99.90
5617;DHT22;2830;50.656;7.568;2023-05-18T01:20:53;3.60;99.90
5617;DHT22;2830;50.656;7.568;2023-05-18T01:23:39;3.50;99.90
5617;DHT22;2830;50.656;7.568;2023-05-18T01:26:16;3.40;99.90
5617;DHT22;2830;50.656;7.568;2023-05-18T01:28:44;3.40;99.90
5617;DHT22;2830;50.656;7.568;2023-05-18T01:31:13;3.40;99.90
5617;DHT22;2830;50.656;7.568;2023-05-18T01:33:42;3.40;99.90
5617;DHT22;2830;50.656;7.568;2023-05-18T01:36:09;3.40;99.90
5617;DHT22;2830;50.656;7.568;2023-05-18T01:38:37;3.40;99.90
5617;DHT22;2830;50.656;7.568;2023-05-18T01:41:23;3.40;99.90
5617;DHT22;2830;50.656;7.568;2023-05-18T01:52:10;3.10;99.90
5617;DHT22;2830;50.656;7.568;2023-05-18T01:54:40;3.10;99.90
5617;DHT22;2830;50.656;7.568;2023-05-18T01:57:08;3.20;99.90
5617;DHT22;2830;50.656;7.568;2023-05-18T01:59:37;3.20;99.90
5617;DHT22;2830;50.656;7.568;2023-05-18T02:02:04;3.10;99.90
5617;DHT22;2830;50.656;7.568;2023-05-18T02:04:31;3.10;99.90
5617;DHT22;2830;50.656;7.568;2023-05-18T02:06:57;3.10;99.90
5617;DHT22;2830;50.656;7.568;2023-05-18T02:09:24;3.00;99.90
5617;DHT22;2830;50.656;7.568;2023-05-18T02:11:51;3.00;99.90
5617;DHT22;2830;50.656;7.568;2023-05-18T02:14:20;2.90;99.90
5617;DHT22;2830;50.656;7.568;2023-05-18T02:16:46;3.00;99.90
5617;DHT22;2830;50.656;7.568;2023-05-18T02:19:19;2.90;99.90
5617;DHT22;2830;50.656;7.568;2023-05-18T02:21:46;2.90;99.90
5617;DHT22;2830;50.656;7.568;2023-05-18T02:24:13;2.80;99.90
5617;DHT22;2830;50.656;7.568;2023-05-18T02:26:40;2.90;99.90
5617;DHT22;2830;50.656;7.568;2023-05-18T02:29:07;2.80;99.90
5617;DHT22;2830;50.656;7.568;2023-05-18T02:31:37;2.80;99.90
5617;DHT22;2830;50.656;7.568;2023-05-18T02:34:04;2.90;99.90
5617;DHT22;2830;50.656;7.568;2023-05-18T02:36:31;2.80;99.90
5617;DHT22;2830;50.656;7.568;2023-05-18T02:39:06;2.80;99.90
5617;DHT22;2830;50.656;7.568;2023-05-18T02:41:33;2.80;99.90
5617;DHT22;2830;50.656;7.568;2023-05-18T02:44:00;2.70;99.90
5617;DHT22;2830;50.656;7.568;2023-05-18T02:46:28;2.70;99.90
5617;DHT22;2830;50.656;7.568;2023-05-18T02:48:55;2.70;99.90
5617;DHT22;2830;50.656;7.568;2023-05-18T02:51:23;2.60;99.90
5617;DHT22;2830;50.656;7.568;2023-05-18T02:53:50;2.60;99.90
5617;DHT22;2830;50.656;7.568;2023-05-18T02:56:17;2.60;99.90
5617;DHT22;2830;50.656;7.568;2023-05-18T02:58:44;2.60;99.90
5617;DHT22;2830;50.656;7.568;2023-05-18T03:01:11;2.50;99.90
5617;DHT22;2830;50.656;7.568;2023-05-18T03:03:38;2.50;99.90
5617;DHT22;2830;50.656;7.568;2023-05-18T03:06:05;2.50;99.90
5617;DHT22;2830;50.656;7.568;2023-05-18T03:08:34;2.50;99.90
5617;DHT22;2830;50.656;7.568;2023-05-18T03:11:03;2.50;99.90
5617;DHT22;2830;50.656;7.568;2023-05-18T03:13:29;2.50;99.90
5617;DHT22;2830;50.656;7.568;2023-05-18T03:15:56;2.50;99.90
5617;DHT22;2830;50.656;7.568;2023-05-18T03:18:23;2.40;99.90
5617;DHT22;2830;50.656;7.568;2023-05-18T03:20:51;2.50;99.90
5617;DHT22;2830;50.656;7.568;2023-05-18T03:23:18;2.40;99.90
5617;DHT22;2830;50.656;7.568;2023-05-18T03:25:45;2.40;99.90
5617;DHT22;2830;50.656;7.568;2023-05-18T03:28:12;2.40;99.90
5617;DHT22;2830;50.656;7.568;2023-05-18T03:30:38;2.30;99.90
5617;DHT22;2830;50.656;7.568;2023-05-18T03:33:05;2.30;99.90
5617;DHT22;2830;50.656;7.568;2023-05-18T03:35:35;2.30;99.90
5617;DHT22;2830;50.656;7.568;2023-05-18T03:38:02;2.30;99.90
5617;DHT22;2830;50.656;7.568;2023-05-18T03:40:28;2.30;99.90
5617;DHT22;2830;50.656;7.568;2023-05-18T03:42:55;2.30;99.90
5617;DHT22;2830;50.656;7.568;2023-05-18T03:45:22;2.30;99.90
5617;DHT22;2830;50.656;7.568;2023-05-18T03:47:48;2.30;99.90
5617;DHT22;2830;50.656;7.568;2023-05-18T03:50:15;2.20;99.90
5617;DHT22;2830;50.656;7.568;2023-05-18T03:52:43;2.20;99.90
5617;DHT22;2830;50.656;7.568;2023-05-18T03:55:10;2.30;99.90
5617;DHT22;2830;50.656;7.568;2023-05-18T03:57:37;2.20;99.90
5617;DHT22;2830;50.656;7.568;2023-05-18T04:00:05;2.30;99.90
5617;DHT22;2830;50.656;7.568;2023-05-18T04:02:37;2.30;99.90
5617;DHT22;2830;50.656;7.568;2023-05-18T04:05:05;2.30;99.90
5617;DHT22;2830;50.656;7.568;2023-05-18T04:07:32;2.30;99.90
5617;DHT22;2830;50.656;7.568;2023-05-18T04:09:59;2.30;99.90
5617;DHT22;2830;50.656;7.568;2023-05-18T04:12:25;2.40;99.90
5617;DHT22;2830;50.656;7.568;2023-05-18T04:14:52;2.40;99.90
5617;DHT22;2830;50.656;7.568;2023-05-18T04:17:20;2.40;99.90
5617;DHT22;2830;50.656;7.568;2023-05-18T04:19:49;2.50;99.90
5617;DHT22;2830;50.656;7.568;2023-05-18T04:22:16;2.40;99.90
5617;DHT22;2830;50.656;7.568;2023-05-18T04:24:43;2.50;99.90
5617;DHT22;2830;50.656;7.568;2023-05-18T04:27:13;2.60;99.90
5617;DHT22;2830;50.656;7.568;2023-05-18T04:29:40;2.60;99.90
5617;DHT22;2830;50.656;7.568;2023-05-18T04:32:09;2.60;99.90
5617;DHT22;2830;50.656;7.568;2023-05-18T04:34:36;2.50;99.90
5617;DHT22;2830;50.656;7.568;2023-05-18T04:37:03;2.70;99.90
5617;DHT22;2830;50.656;7.568;2023-05-18T04:39:33;2.80;99.90
5617;DHT22;2830;50.656;7.568;2023-05-18T04:42:00;2.80;99.90
5617;DHT22;2830;50.656;7.568;2023-05-18T04:44:30;2.90;99.90
5617;DHT22;2830;50.656;7.568;2023-05-18T04:47:00;3.00;99.90
5617;DHT22;2830;50.656;7.568;2023-05-18T04:49:27;3.10;99.90
5617;DHT22;2830;50.656;7.568;2023-05-18T04:51:55;3.20;99.90
5617;DHT22;2830;50.656;7.568;2023-05-18T04:54:22;3.30;99.90
5617;DHT22;2830;50.656;7.568;2023-05-18T04:56:50;3.30;99.90
5617;DHT22;2830;50.656;7.568;2023-05-18T04:59:17;3.40;99.90
5617;DHT22;2830;50.656;7.568;2023-05-18T05:01:44;3.50;99.90
5617;DHT22;2830;50.656;7.568;2023-05-18T05:04:12;3.60;99.90
5617;DHT22;2830;50.656;7.568;2023-05-18T05:06:38;3.70;99.90
5617;DHT22;2830;50.656;7.568;2023-05-18T05:09:05;3.70;99.90
5617;DHT22;2830;50.656;7.568;2023-05-18T05:11:32;3.80;99.90
5617;DHT22;2830;50.656;7.568;2023-05-18T05:14:01;4.00;99.90
5617;DHT22;2830;50.656;7.568;2023-05-18T05:16:28;4.00;99.90
5617;DHT22;2830;50.656;7.568;2023-05-18T05:18:55;4.10;99.90
5617;DHT22;2830;50.656;7.568;2023-05-18T05:21:22;4.20;99.90
5617;DHT22;2830;50.656;7.568;2023-05-18T05:23:49;4.30;99.90
5617;DHT22;2830;50.656;7.568;2023-05-18T05:26:16;4.60;99.90
5617;DHT22;2830;50.656;7.568;2023-05-18T05:28:43;5.00;99.90
5617;DHT22;2830;50.656;7.568;2023-05-18T05:31:09;5.50;99.90
5617;DHT22;2830;50.656;7.568;2023-05-18T05:33:36;6.10;99.90
5617;DHT22;2830;50.656;7.568;2023-05-18T05:36:03;6.80;99.90
5617;DHT22;2830;50.656;7.568;2023-05-18T05:38:34;7.50;99.90
5617;DHT22;2830;50.656;7.568;2023-05-18T05:41:00;7.70;99.90
5617;DHT22;2830;50.656;7.568;2023-05-18T05:43:27;8.20;99.90
5617;DHT22;2830;50.656;7.568;2023-05-18T05:45:54;8.60;99.00
5617;DHT22;2830;50.656;7.568;2023-05-18T05:48:20;9.10;98.50
5617;DHT22;2830;50.656;7.568;2023-05-18T05:50:47;9.90;96.40
5617;DHT22;2830;50.656;7.568;2023-05-18T05:53:14;10.40;95.80
5617;DHT22;2830;50.656;7.568;2023-05-18T05:55:45;10.50;94.50
5617;DHT22;2830;50.656;7.568;2023-05-18T05:58:12;10.60;95.00
5617;DHT22;2830;50.656;7.568;2023-05-18T06:00:38;11.10;94.10
5617;DHT22;2830;50.656;7.568;2023-05-18T06:03:05;11.40;93.00
5617;DHT22;2830;50.656;7.568;2023-05-18T06:05:32;11.20;92.90
5617;DHT22;2830;50.656;7.568;2023-05-18T06:07:59;11.40;91.80
5617;DHT22;2830;50.656;7.568;2023-05-18T06:10:27;11.50;92.20
5617;DHT22;2830;50.656;7.568;2023-05-18T06:12:53;11.80;91.60
5617;DHT22;2830;50.656;7.568;2023-05-18T06:15:20;11.90;91.80
5617;DHT22;2830;50.656;7.568;2023-05-18T06:17:47;12.30;91.40
5617;DHT22;2830;50.656;7.568;2023-05-18T06:20:13;13.00;87.90
5617;DHT22;2830;50.656;7.568;2023-05-18T06:22:40;13.30;87.00
5617;DHT22;2830;50.656;7.568;2023-05-18T06:25:07;13.30;86.30
5617;DHT22;2830;50.656;7.568;2023-05-18T06:27:36;13.40;85.90
5617;DHT22;2830;50.656;7.568;2023-05-18T06:30:04;13.70;84.70
5617;DHT22;2830;50.656;7.568;2023-05-18T06:32:30;13.60;82.30
5617;DHT22;2830;50.656;7.568;2023-05-18T06:34:57;13.70;85.00
5617;DHT22;2830;50.656;7.568;2023-05-18T06:37:24;14.10;82.00
5617;DHT22;2830;50.656;7.568;2023-05-18T06:39:52;14.40;80.00
5617;DHT22;2830;50.656;7.568;2023-05-18T06:42:18;15.00;74.40
5617;DHT22;2830;50.656;7.568;2023-05-18T06:44:45;15.10;78.70
5617;DHT22;2830;50.656;7.568;2023-05-18T06:47:13;15.40;73.50
5617;DHT22;2830;50.656;7.568;2023-05-18T06:49:39;15.40;73.20
5617;DHT22;2830;50.656;7.568;2023-05-18T06:52:06;15.90;71.00
5617;DHT22;2830;50.656;7.568;2023-05-18T06:54:35;16.00;68.40
5617;DHT22;2830;50.656;7.568;2023-05-18T06:57:02;16.50;68.20
5617;DHT22;2830;50.656;7.568;2023-05-18T06:59:29;16.60;63.80
5617;DHT22;2830;50.656;7.568;2023-05-18T07:01:56;16.70;66.20
5617;DHT22;2830;50.656;7.568;2023-05-18T07:04:23;17.30;62.60
5617;DHT22;2830;50.656;7.568;2023-05-18T07:06:49;17.70;61.70
5617;DHT22;2830;50.656;7.568;2023-05-18T07:09:16;17.30;61.50
5617;DHT22;2830;50.656;7.568;2023-05-18T07:11:43;17.30;60.90
5617;DHT22;2830;50.656;7.568;2023-05-18T07:14:10;17.20;61.20
5617;DHT22;2830;50.656;7.568;2023-05-18T07:16:37;17.50;63.10
5617;DHT22;2830;50.656;7.568;2023-05-18T07:19:05;17.60;63.60
5617;DHT22;2830;50.656;7.568;2023-05-18T07:21:31;17.90;64.50
5617;DHT22;2830;50.656;7.568;2023-05-18T07:23:58;17.80;58.40
5617;DHT22;2830;50.656;7.568;2023-05-18T07:26:25;17.50;60.50
5617;DHT22;2830;50.656;7.568;2023-05-18T07:28:51;17.60;61.10
5617;DHT22;2830;50.656;7.568;2023-05-18T07:31:18;17.80;60.70
5617;DHT22;2830;50.656;7.568;2023-05-18T07:33:47;18.00;60.70
5617;DHT22;2830;50.656;7.568;2023-05-18T07:36:14;18.10;59.30
5617;DHT22;2830;50.656;7.568;2023-05-18T07:38:41;18.10;59.50
5617;DHT22;2830;50.656;7.568;2023-05-18T07:41:07;18.80;60.20
5617;DHT22;2830;50.656;7.568;2023-05-18T07:43:34;19.50;54.70
5617;DHT22;2830;50.656;7.568;2023-05-18T07:46:01;19.50;53.50
5617;DHT22;2830;50.656;7.568;2023-05-18T07:48:28;19.60;54.00
5617;DHT22;2830;50.656;7.568;2023-05-18T07:50:54;19.90;53.40
5617;DHT22;2830;50.656;7.568;2023-05-18T07:53:21;19.70;51.10
5617;DHT22;2830;50.656;7.568;2023-05-18T07:55:48;20.00;52.60
5617;DHT22;2830;50.656;7.568;2023-05-18T07:58:15;20.10;52.70
5617;DHT22;2830;50.656;7.568;2023-05-18T08:00:42;20.10;53.50
5617;DHT22;2830;50.656;7.568;2023-05-18T08:03:09;20.80;50.60
5617;DHT22;2830;50.656;7.568;2023-05-18T08:05:36;20.80;49.50
5617;DHT22;2830;50.656;7.568;2023-05-18T08:08:03;20.40;52.90
5617;DHT22;2830;50.656;7.568;2023-05-18T08:10:32;20.80;54.50
5617;DHT22;2830;50.656;7.568;2023-05-18T08:12:59;21.30;49.90
5617;DHT22;2830;50.656;7.568;2023-05-18T08:15:26;21.50;50.40
5617;DHT22;2830;50.656;7.568;2023-05-18T08:17:52;21.60;50.60
5617;DHT22;2830;50.656;7.568;2023-05-18T08:20:20;21.00;46.90
5617;DHT22;2830;50.656;7.568;2023-05-18T08:22:47;21.60;48.90
5617;DHT22;2830;50.656;7.568;2023-05-18T08:25:14;22.20;45.80
5617;DHT22;2830;50.656;7.568;2023-05-18T08:27:40;22.10;46.40
5617;DHT22;2830;50.656;7.568;2023-05-18T08:30:08;21.60;44.90
5617;DHT22;2830;50.656;7.568;2023-05-18T08:32:35;22.20;47.70
5617;DHT22;2830;50.656;7.568;2023-05-18T08:35:04;21.60;46.60
5617;DHT22;2830;50.656;7.568;2023-05-18T08:37:31;21.00;46.90
5617;DHT22;2830;50.656;7.568;2023-05-18T08:39:57;21.20;44.80
5617;DHT22;2830;50.656;7.568;2023-05-18T08:42:38;21.60;45.00
5617;DHT22;2830;50.656;7.568;2023-05-18T08:45:39;21.60;46.10
5617;DHT22;2830;50.656;7.568;2023-05-18T08:48:06;21.20;47.90
5617;DHT22;2830;50.656;7.568;2023-05-18T08:50:37;20.40;46.80
5617;DHT22;2830;50.656;7.568;2023-05-18T08:53:09;20.80;47.30
5617;DHT22;2830;50.656;7.568;2023-05-18T08:55:36;21.40;48.00
5617;DHT22;2830;50.656;7.568;2023-05-18T08:58:06;21.50;46.60
5617;DHT22;2830;50.656;7.568;2023-05-18T09:00:33;21.80;46.40
5617;DHT22;2830;50.656;7.568;2023-05-18T09:03:03;21.10;44.10
5617;DHT22;2830;50.656;7.568;2023-05-18T09:05:30;20.80;46.20
5617;DHT22;2830;50.656;7.568;2023-05-18T09:07:58;20.90;47.30
5617;DHT22;2830;50.656;7.568;2023-05-18T09:10:26;21.50;49.50
5617;DHT22;2830;50.656;7.568;2023-05-18T09:12:54;21.30;45.80
5617;DHT22;2830;50.656;7.568;2023-05-18T09:15:21;22.20;46.00
5617;DHT22;2830;50.656;7.568;2023-05-18T09:17:50;21.80;41.40
5617;DHT22;2830;50.656;7.568;2023-05-18T09:20:18;22.40;44.10
5617;DHT22;2830;50.656;7.568;2023-05-18T09:22:45;22.70;44.40
5617;DHT22;2830;50.656;7.568;2023-05-18T09:25:15;23.60;40.60
5617;DHT22;2830;50.656;7.568;2023-05-18T09:27:43;24.60;40.10
5617;DHT22;2830;50.656;7.568;2023-05-18T09:30:10;25.20;38.40
5617;DHT22;2830;50.656;7.568;2023-05-18T09:32:37;25.40;37.30
5617;DHT22;2830;50.656;7.568;2023-05-18T09:35:05;25.10;38.80
5617;DHT22;2830;50.656;7.568;2023-05-18T09:37:32;24.70;36.20
5617;DHT22;2830;50.656;7.568;2023-05-18T09:40:00;24.50;36.80
5617;DHT22;2830;50.656;7.568;2023-05-18T09:42:42;24.60;39.20
5617;DHT22;2830;50.656;7.568;2023-05-18T09:45:18;24.80;36.00
5617;DHT22;2830;50.656;7.568;2023-05-18T09:47:45;25.10;38.60
5617;DHT22;2830;50.656;7.568;2023-05-18T09:50:12;25.20;38.70
5617;DHT22;2830;50.656;7.568;2023-05-18T09:52:43;25.10;39.30
5617;DHT22;2830;50.656;7.568;2023-05-18T09:55:11;25.10;36.40
5617;DHT22;2830;50.656;7.568;2023-05-18T09:57:40;24.00;37.70
5617;DHT22;2830;50.656;7.568;2023-05-18T10:00:08;23.90;41.00
5617;DHT22;2830;50.656;7.568;2023-05-18T10:02:43;24.20;38.80
5617;DHT22;2830;50.656;7.568;2023-05-18T10:07:53;24.90;38.10
5617;DHT22;2830;50.656;7.568;2023-05-18T10:10:23;25.40;36.80
5617;DHT22;2830;50.656;7.568;2023-05-18T10:12:51;25.50;34.10
5617;DHT22;2830;50.656;7.568;2023-05-18T10:15:21;26.20;36.40
5617;DHT22;2830;50.656;7.568;2023-05-18T10:17:50;26.70;36.60
5617;DHT22;2830;50.656;7.568;2023-05-18T10:20:19;26.80;37.80
5617;DHT22;2830;50.656;7.568;2023-05-18T10:22:47;27.40;37.10
5617;DHT22;2830;50.656;7.568;2023-05-18T10:25:19;27.10;35.40
5617;DHT22;2830;50.656;7.568;2023-05-18T10:27:50;27.90;31.70
5617;DHT22;2830;50.656;7.568;2023-05-18T10:30:21;28.30;31.00
5617;DHT22;2830;50.656;7.568;2023-05-18T10:32:48;28.00;30.00
5617;DHT22;2830;50.656;7.568;2023-05-18T10:35:17;28.00;32.20
5617;DHT22;2830;50.656;7.568;2023-05-18T10:37:45;28.40;32.80
5617;DHT22;2830;50.656;7.568;2023-05-18T10:40:13;28.00;29.60
5617;DHT22;2830;50.656;7.568;2023-05-18T10:42:42;26.80;34.20
5617;DHT22;2830;50.656;7.568;2023-05-18T10:45:09;27.00;34.00
5617;DHT22;2830;50.656;7.568;2023-05-18T10:47:36;27.10;34.70
5617;DHT22;2830;50.656;7.568;2023-05-18T10:50:08;27.20;33.70
5617;DHT22;2830;50.656;7.568;2023-05-18T10:52:39;28.20;33.60
5617;DHT22;2830;50.656;7.568;2023-05-18T10:55:07;28.30;32.30
5617;DHT22;2830;50.656;7.568;2023-05-18T10:57:38;26.90;30.30
5617;DHT22;2830;50.656;7.568;2023-05-18T11:00:06;26.40;31.10
5617;DHT22;2830;50.656;7.568;2023-05-18T11:02:36;26.20;32.10
5617;DHT22;2830;50.656;7.568;2023-05-18T11:05:06;25.90;32.50
5617;DHT22;2830;50.656;7.568;2023-05-18T11:07:33;25.90;31.60
5617;DHT22;2830;50.656;7.568;2023-05-18T11:10:01;25.80;32.30
5617;DHT22;2830;50.656;7.568;2023-05-18T11:12:30;26.50;33.60
5617;DHT22;2830;50.656;7.568;2023-05-18T11:14:58;26.90;32.90
5617;DHT22;2830;50.656;7.568;2023-05-18T11:17:29;27.60;32.90
5617;DHT22;2830;50.656;7.568;2023-05-18T11:25:41;26.70;32.40
5617;DHT22;2830;50.656;7.568;2023-05-18T11:28:13;26.60;31.40
5617;DHT22;2830;50.656;7.568;2023-05-18T11:33:12;27.50;31.80
5617;DHT22;2830;50.656;7.568;2023-05-18T11:36:11;28.50;33.60
5617;DHT22;2830;50.656;7.568;2023-05-18T11:38:50;27.60;31.20
5617;DHT22;2830;50.656;7.568;2023-05-18T11:46:32;28.70;33.00
5617;DHT22;2830;50.656;7.568;2023-05-18T11:49:03;28.80;30.20
5617;DHT22;2830;50.656;7.568;2023-05-18T11:51:32;28.00;31.20
5617;DHT22;2830;50.656;7.568;2023-05-18T11:53:59;28.30;30.70
5617;DHT22;2830;50.656;7.568;2023-05-18T11:56:30;28.70;31.50
5617;DHT22;2830;50.656;7.568;2023-05-18T11:59:12;28.10;29.80
5617;DHT22;2830;50.656;7.568;2023-05-18T12:01:40;27.80;30.10
5617;DHT22;2830;50.656;7.568;2023-05-18T12:04:08;27.40;29.60
5617;DHT22;2830;50.656;7.568;2023-05-18T12:06:36;26.90;31.20
5617;DHT22;2830;50.656;7.568;2023-05-18T12:09:03;26.70;32.90
5617;DHT22;2830;50.656;7.568;2023-05-18T12:11:31;25.60;31.40
5617;DHT22;2830;50.656;7.568;2023-05-18T12:13:58;25.10;32.00
5617;DHT22;2830;50.656;7.568;2023-05-18T12:16:26;25.30;34.60
5617;DHT22;2830;50.656;7.568;2023-05-18T12:18:55;25.00;34.40
5617;DHT22;2830;50.656;7.568;2023-05-18T12:21:23;24.60;35.10
5617;DHT22;2830;50.656;7.568;2023-05-18T12:23:59;24.50;33.50
5617;DHT22;2830;50.656;7.568;2023-05-18T12:26:27;24.50;32.80
5617;DHT22;2830;50.656;7.568;2023-05-18T12:28:54;24.70;34.80
5617;DHT22;2830;50.656;7.568;2023-05-18T12:31:22;24.40;36.90
5617;DHT22;2830;50.656;7.568;2023-05-18T12:33:49;24.30;39.40
5617;DHT22;2830;50.656;7.568;2023-05-18T12:36:17;23.80;36.50
5617;DHT22;2830;50.656;7.568;2023-05-18T12:38:53;23.40;35.70
5617;DHT22;2830;50.656;7.568;2023-05-18T12:41:23;23.40;41.30
5617;DHT22;2830;50.656;7.568;2023-05-18T12:43:50;23.40;40.30
5617;DHT22;2830;50.656;7.568;2023-05-18T12:46:21;23.70;41.80
5617;DHT22;2830;50.656;7.568;2023-05-18T12:48:57;24.00;41.30
5617;DHT22;2830;50.656;7.568;2023-05-18T12:51:34;23.60;36.20
5617;DHT22;2830;50.656;7.568;2023-05-18T12:54:02;23.20;37.10
5617;DHT22;2830;50.656;7.568;2023-05-18T12:56:51;23.50;37.60
5617;DHT22;2830;50.656;7.568;2023-05-18T12:59:18;24.10;37.40
5617;DHT22;2830;50.656;7.568;2023-05-18T13:01:45;24.10;39.80
5617;DHT22;2830;50.656;7.568;2023-05-18T13:04:12;23.80;36.90
5617;DHT22;2830;50.656;7.568;2023-05-18T13:06:40;23.40;37.40
5617;DHT22;2830;50.656;7.568;2023-05-18T13:09:11;22.70;37.00
5617;DHT22;2830;50.656;7.568;2023-05-18T13:11:39;22.40;38.60
5617;DHT22;2830;50.656;7.568;2023-05-18T13:14:07;22.50;37.70
5617;DHT22;2830;50.656;7.568;2023-05-18T13:16:37;23.00;39.70
5617;DHT22;2830;50.656;7.568;2023-05-18T13:19:06;23.30;38.00
5617;DHT22;2830;50.656;7.568;2023-05-18T13:21:33;23.50;38.90
5617;DHT22;2830;50.656;7.568;2023-05-18T13:24:04;23.20;36.70
5617;DHT22;2830;50.656;7.568;2023-05-18T13:26:31;22.90;36.10
5617;DHT22;2830;50.656;7.568;2023-05-18T13:28:58;22.20;37.80
5617;DHT22;2830;50.656;7.568;2023-05-18T13:31:26;21.80;36.30
5617;DHT22;2830;50.656;7.568;2023-05-18T13:33:54;21.80;37.10
5617;DHT22;2830;50.656;7.568;2023-05-18T13:36:22;21.70;38.90
5617;DHT22;2830;50.656;7.568;2023-05-18T13:38:49;21.60;37.30
5617;DHT22;2830;50.656;7.568;2023-05-18T13:41:15;21.10;39.60
5617;DHT22;2830;50.656;7.568;2023-05-18T13:43:42;21.20;44.60
5617;DHT22;2830;50.656;7.568;2023-05-18T13:46:09;21.30;46.30
5617;DHT22;2830;50.656;7.568;2023-05-18T13:48:36;21.30;43.30
5617;DHT22;2830;50.656;7.568;2023-05-18T13:51:02;21.10;42.70
5617;DHT22;2830;50.656;7.568;2023-05-18T13:53:29;20.90;40.70
5617;DHT22;2830;50.656;7.568;2023-05-18T13:55:56;20.60;40.50
5617;DHT22;2830;50.656;7.568;2023-05-18T13:58:23;20.60;42.50
5617;DHT22;2830;50.656;7.568;2023-05-18T14:00:49;20.90;42.30
5617;DHT22;2830;50.656;7.568;2023-05-18T14:03:19;20.70;41.00
5617;DHT22;2830;50.656;7.568;2023-05-18T14:05:46;20.50;41.30
5617;DHT22;2830;50.656;7.568;2023-05-18T14:08:12;20.60;41.30
5617;DHT22;2830;50.656;7.568;2023-05-18T14:10:39;20.70;41.10
5617;DHT22;2830;50.656;7.568;2023-05-18T14:13:06;20.40;42.60
5617;DHT22;2830;50.656;7.568;2023-05-18T14:15:33;20.30;41.50
5617;DHT22;2830;50.656;7.568;2023-05-18T14:18:00;20.40;44.30
5617;DHT22;2830;50.656;7.568;2023-05-18T14:20:27;20.20;41.70
5617;DHT22;2830;50.656;7.568;2023-05-18T14:22:55;20.30;42.00
5617;DHT22;2830;50.656;7.568;2023-05-18T14:25:23;20.20;42.00
5617;DHT22;2830;50.656;7.568;2023-05-18T14:27:50;20.10;43.30
5617;DHT22;2830;50.656;7.568;2023-05-18T14:30:16;20.10;46.00
5617;DHT22;2830;50.656;7.568;2023-05-18T14:32:43;20.00;44.80
5617;DHT22;2830;50.656;7.568;2023-05-18T14:35:10;19.90;42.60
5617;DHT22;2830;50.656;7.568;2023-05-18T14:37:37;19.90;42.30
5617;DHT22;2830;50.656;7.568;2023-05-18T14:40:04;19.90;43.40
5617;DHT22;2830;50.656;7.568;2023-05-18T14:42:31;20.00;44.30
5617;DHT22;2830;50.656;7.568;2023-05-18T14:44:58;20.00;42.30
5617;DHT22;2830;50.656;7.568;2023-05-18T14:47:24;20.20;50.10
5617;DHT22;2830;50.656;7.568;2023-05-18T14:49:51;20.30;45.40
5617;DHT22;2830;50.656;7.568;2023-05-18T14:52:18;19.90;41.60
5617;DHT22;2830;50.656;7.568;2023-05-18T14:54:46;19.70;44.50
5617;DHT22;2830;50.656;7.568;2023-05-18T14:57:13;19.70;43.70
5617;DHT22;2830;50.656;7.568;2023-05-18T14:59:39;19.60;43.60
5617;DHT22;2830;50.656;7.568;2023-05-18T15:02:06;19.60;46.60
5617;DHT22;2830;50.656;7.568;2023-05-18T15:04:33;19.50;40.60
5617;DHT22;2830;50.656;7.568;2023-05-18T15:07:01;19.50;40.90
5617;DHT22;2830;50.656;7.568;2023-05-18T15:09:28;19.50;40.10
5617;DHT22;2830;50.656;7.568;2023-05-18T15:11:56;19.70;44.10
5617;DHT22;2830;50.656;7.568;2023-05-18T15:14:22;19.90;43.40
5617;DHT22;2830;50.656;7.568;2023-05-18T15:16:49;19.90;43.00
5617;DHT22;2830;50.656;7.568;2023-05-18T15:19:16;19.80;43.80
5617;DHT22;2830;50.656;7.568;2023-05-18T15:21:43;19.50;43.00
5617;DHT22;2830;50.656;7.568;2023-05-18T15:24:10;19.50;44.60
5617;DHT22;2830;50.656;7.568;2023-05-18T15:26:37;19.60;44.00
5617;DHT22;2830;50.656;7.568;2023-05-18T15:29:03;19.50;43.20
5617;DHT22;2830;50.656;7.568;2023-05-18T15:31:30;19.40;43.60
5617;DHT22;2830;50.656;7.568;2023-05-18T15:33:58;19.50;46.90
5617;DHT22;2830;50.656;7.568;2023-05-18T15:36:25;19.50;44.90
5617;DHT22;2830;50.656;7.568;2023-05-18T15:38:52;19.50;45.60
5617;DHT22;2830;50.656;7.568;2023-05-18T15:41:18;19.50;44.90
5617;DHT22;2830;50.656;7.568;2023-05-18T15:43:45;19.40;43.60
5617;DHT22;2830;50.656;7.568;2023-05-18T15:46:12;19.30;45.70
5617;DHT22;2830;50.656;7.568;2023-05-18T15:48:39;19.10;46.90
5617;DHT22;2830;50.656;7.568;2023-05-18T15:51:05;18.80;45.80
5617;DHT22;2830;50.656;7.568;2023-05-18T15:53:33;18.70;46.60
5617;DHT22;2830;50.656;7.568;2023-05-18T15:55:59;18.90;46.70
5617;DHT22;2830;50.656;7.568;2023-05-18T15:58:26;19.00;46.70
5617;DHT22;2830;50.656;7.568;2023-05-18T16:00:53;19.10;47.20
5617;DHT22;2830;50.656;7.568;2023-05-18T16:03:20;18.90;45.60
5617;DHT22;2830;50.656;7.568;2023-05-18T16:05:47;18.60;46.90
5617;DHT22;2830;50.656;7.568;2023-05-18T16:08:14;18.50;46.30
5617;DHT22;2830;50.656;7.568;2023-05-18T16:10:42;18.20;46.40
5617;DHT22;2830;50.656;7.568;2023-05-18T16:13:08;18.20;45.20
5617;DHT22;2830;50.656;7.568;2023-05-18T16:15:35;18.30;45.10
5617;DHT22;2830;50.656;7.568;2023-05-18T16:18:02;18.40;46.10
5617;DHT22;2830;50.656;7.568;2023-05-18T16:20:29;18.60;45.90
5617;DHT22;2830;50.656;7.568;2023-05-18T16:22:57;18.70;46.60
5617;DHT22;2830;50.656;7.568;2023-05-18T16:25:24;18.60;44.90
5617;DHT22;2830;50.656;7.568;2023-05-18T16:27:51;18.60;45.20
5617;DHT22;2830;50.656;7.568;2023-05-18T16:30:18;18.70;44.70
5617;DHT22;2830;50.656;7.568;2023-05-18T16:32:45;18.60;45.10
5617;DHT22;2830;50.656;7.568;2023-05-18T16:35:11;18.50;45.90
5617;DHT22;2830;50.656;7.568;2023-05-18T16:37:38;18.50;46.90
5617;DHT22;2830;50.656;7.568;2023-05-18T16:40:05;18.50;46.10
5617;DHT22;2830;50.656;7.568;2023-05-18T16:42:32;18.40;46.60